createdAt,value
2023-03-25T00:00:20.868Z,7.90
2023-03-25T00:05:25.036Z,8.10
2023-03-25T00:10:28.534Z,8.10
2023-03-25T00:15:33.975Z,7.90
2023-03-25T00:20:37.367Z,7.50
2023-03-25T00:25:40.635Z,7.40
2023-03-25T00:30:46.576Z,7.20
2023-03-25T00:35:54.805Z,7.10
2023-03-25T00:40:58.144Z,7.10
2023-03-25T00:46:03.094Z,7.10
2023-03-25T00:51:10.099Z,7.10
2023-03-25T00:56:13.643Z,7.10
2023-03-25T01:01:23.591Z,7.00
2023-03-25T01:06:29.986Z,6.80
2023-03-25T01:11:35.850Z,6.60
2023-03-25T01:16:41.010Z,6.50
2023-03-25T01:21:45.445Z,6.40
2023-03-25T01:26:48.916Z,6.30
2023-03-25T01:31:54.709Z,6.30
2023-03-25T01:36:58.366Z,6.50
2023-03-25T01:42:02.848Z,6.70
2023-03-25T01:47:09.035Z,6.90
2023-03-25T01:52:16.463Z,7.00
2023-03-25T01:57:21.845Z,7.00
2023-03-25T02:02:36.729Z,6.90
2023-03-25T02:07:48.014Z,6.80
2023-03-25T02:12:51.411Z,6.70
2023-03-25T02:18:16.230Z,6.50
2023-03-25T02:23:43.146Z,6.50
2023-03-25T02:28:51.963Z,6.40
2023-03-25T02:34:20.232Z,6.30
2023-03-25T02:39:32.150Z,6.20
2023-03-25T02:44:40.656Z,6.40
2023-03-25T02:49:48.107Z,6.50
2023-03-25T02:54:58.122Z,6.50
2023-03-25T03:00:11.313Z,6.50
2023-03-25T03:05:26.265Z,6.40
2023-03-25T03:10:36.440Z,6.30
2023-03-25T03:15:47.463Z,6.20
2023-03-25T03:21:00.777Z,6.00
2023-03-25T03:26:12.993Z,5.90
2023-03-25T03:31:48.509Z,5.90
2023-03-25T03:36:48.259Z,5.80
2023-03-25T03:41:57.334Z,5.70
2023-03-25T03:47:03.383Z,5.70
2023-03-25T03:52:11.165Z,5.70
2023-03-25T03:57:21.051Z,5.70
2023-03-25T04:02:29.537Z,5.70
2023-03-25T04:07:39.272Z,5.80
2023-03-25T04:12:47.868Z,5.80
2023-03-25T04:17:51.245Z,5.70
2023-03-25T04:22:54.988Z,5.80
2023-03-25T04:28:00.377Z,5.70
2023-03-25T04:33:03.820Z,5.70
2023-03-25T04:38:07.210Z,5.70
2023-03-25T04:43:12.610Z,5.60
2023-03-25T04:48:22.750Z,5.50
2023-03-25T04:53:26.272Z,5.40
2023-03-25T04:58:33.720Z,5.30
2023-03-25T05:03:40.184Z,5.30
2023-03-25T05:08:43.557Z,5.40
2023-03-25T05:13:48.248Z,5.30
2023-03-25T05:18:51.499Z,5.40
2023-03-25T05:23:54.870Z,5.50
2023-03-25T05:29:01.675Z,5.60
2023-03-25T05:34:06.850Z,5.70
2023-03-25T05:39:11.091Z,5.70
2023-03-25T05:44:19.238Z,5.70
2023-03-25T05:49:22.574Z,5.80
2023-03-25T05:54:25.909Z,5.90
2023-03-25T05:59:30.488Z,6.10
2023-03-25T06:04:38.050Z,6.20
2023-03-25T06:09:46.753Z,6.20
2023-03-25T06:14:54.224Z,6.30
2023-03-25T06:19:57.762Z,6.40
2023-03-25T06:25:04.842Z,6.50
2023-03-25T06:30:14.416Z,6.70
2023-03-25T06:35:20.250Z,7.00
2023-03-25T06:40:27.003Z,7.20
2023-03-25T06:45:31.803Z,7.60
2023-03-25T06:50:35.541Z,10.40
2023-03-25T06:55:39.703Z,13.30
2023-03-25T07:00:46.012Z,15.20
2023-03-25T07:05:52.186Z,13.30
2023-03-25T07:11:01.366Z,10.50
2023-03-25T07:16:08.019Z,9.50
2023-03-25T07:21:11.342Z,8.60
2023-03-25T07:26:14.673Z,9.50
2023-03-25T07:31:19.490Z,9.70
2023-03-25T07:36:23.844Z,11.20
2023-03-25T07:41:27.181Z,13.20
2023-03-25T07:46:31.881Z,15.30
2023-03-25T07:51:35.647Z,16.80
2023-03-25T07:56:40.078Z,16.50
2023-03-25T08:01:44.921Z,16.30
2023-03-25T08:06:48.227Z,15.50
2023-03-25T08:11:53.414Z,13.80
2023-03-25T08:16:58.130Z,12.50
2023-03-25T08:22:04.790Z,12.50
2023-03-25T08:27:16.250Z,14.90
2023-03-25T08:32:21.617Z,14.40
2023-03-25T08:37:26.102Z,12.60
2023-03-25T08:42:35.579Z,12.20
2023-03-25T08:47:40.493Z,12.10
2023-03-25T08:52:43.888Z,12.70
2023-03-25T08:57:47.275Z,12.20
2023-03-25T09:02:52.509Z,11.90
2023-03-25T09:07:56.424Z,12.20
2023-03-25T09:12:59.757Z,11.90
2023-03-25T09:18:05.127Z,13.10
2023-03-25T09:23:09.757Z,12.50
2023-03-25T09:28:16.376Z,12.50
2023-03-25T09:33:21.047Z,11.90
2023-03-25T09:38:26.557Z,11.40
2023-03-25T09:43:40.552Z,11.10
2023-03-25T09:48:48.213Z,11.10
2023-03-25T09:53:57.614Z,11.20
2023-03-25T09:59:10.409Z,11.10
2023-03-25T10:04:51.332Z,10.40
2023-03-25T10:10:01.362Z,10.20
2023-03-25T10:15:15.588Z,10.50
2023-03-25T10:20:26.270Z,10.90
2023-03-25T10:25:38.801Z,10.50
2023-03-25T10:30:48.471Z,10.80
2023-03-25T10:35:54.189Z,10.70
2023-03-25T10:41:06.521Z,9.80
2023-03-25T10:46:18.207Z,9.90
2023-03-25T10:51:27.129Z,10.10
2023-03-25T10:56:33.881Z,10.70
2023-03-25T11:01:39.748Z,11.40
2023-03-25T11:06:47.435Z,12.00
2023-03-25T11:11:51.113Z,12.20
2023-03-25T11:16:58.160Z,11.70
2023-03-25T11:22:12.720Z,11.70
2023-03-25T11:27:23.100Z,11.60
2023-03-25T11:32:34.899Z,11.10
2023-03-25T11:37:47.358Z,10.90
2023-03-25T11:42:55.839Z,11.40
2023-03-25T11:48:06.565Z,11.90
2023-03-25T11:53:18.133Z,12.10
2023-03-25T11:58:23.713Z,12.60
2023-03-25T12:03:30.170Z,12.70
2023-03-25T12:08:44.758Z,12.50
2023-03-25T12:14:03.722Z,12.80
2023-03-25T12:19:14.506Z,12.70
2023-03-25T12:24:32.981Z,12.90
2023-03-25T12:29:43.048Z,13.20
2023-03-25T12:34:58.760Z,12.60
2023-03-25T12:40:27.926Z,11.50
2023-03-25T12:45:58.883Z,10.90
2023-03-25T12:51:08.724Z,11.90
2023-03-25T12:56:33.291Z,12.70
2023-03-25T13:01:49.545Z,12.80
2023-03-25T13:07:00.209Z,13.00
2023-03-25T13:12:10.572Z,12.40
2023-03-25T13:17:23.184Z,12.20
2023-03-25T13:22:33.774Z,12.80
2023-03-25T13:27:43.195Z,12.20
2023-03-25T13:32:50.463Z,11.50
2023-03-25T13:37:57.577Z,10.80
2023-03-25T13:43:08.683Z,11.10
2023-03-25T13:48:17.022Z,11.50
2023-03-25T13:53:28.007Z,11.80
2023-03-25T13:58:51.391Z,11.90
2023-03-25T14:04:26.706Z,12.10
2023-03-25T14:09:57.241Z,11.90
2023-03-25T14:15:06.673Z,11.70
2023-03-25T14:20:12.546Z,11.90
2023-03-25T14:25:31.074Z,12.40
2023-03-25T14:30:36.719Z,12.30
2023-03-25T14:35:51.550Z,12.40
2023-03-25T14:41:04.242Z,12.20
2023-03-25T14:46:23.360Z,12.30
2023-03-25T14:51:57.945Z,12.30
2023-03-25T14:57:07.717Z,12.20
2023-03-25T15:02:21.616Z,12.40
2023-03-25T15:07:43.098Z,12.30
2023-03-25T15:12:51.319Z,12.10
2023-03-25T15:17:59.809Z,11.70
2023-03-25T15:23:40.852Z,11.40
2023-03-25T15:29:18.873Z,11.50
2023-03-25T15:34:44.894Z,11.30
2023-03-25T15:40:08.883Z,11.30
2023-03-25T15:45:34.004Z,10.80
2023-03-25T15:50:50.065Z,11.10
2023-03-25T15:55:58.823Z,11.00
2023-03-25T16:01:16.853Z,10.90
2023-03-25T16:06:22.583Z,10.80
2023-03-25T16:11:28.829Z,10.70
2023-03-25T16:16:36.369Z,10.40
2023-03-25T16:21:43.950Z,10.30
2023-03-25T16:26:49.383Z,10.20
2023-03-25T16:31:55.185Z,10.00
2023-03-25T16:37:01.475Z,10.00
2023-03-25T16:42:08.097Z,9.90
2023-03-25T16:47:14.847Z,9.80
2023-03-25T16:52:23.593Z,9.90
2023-03-25T16:57:42.723Z,9.80
2023-03-25T17:02:48.512Z,9.80
2023-03-25T17:08:04.205Z,9.70
2023-03-25T17:13:10.736Z,9.70
2023-03-25T17:18:20.422Z,9.50
2023-03-25T17:23:36.275Z,9.40
2023-03-25T17:28:43.226Z,9.30
2023-03-25T17:33:50.540Z,9.10
2023-03-25T17:38:56.091Z,9.00
2023-03-25T17:44:02.257Z,8.90
2023-03-25T17:49:17.017Z,8.80
2023-03-25T17:54:22.162Z,8.70
2023-03-25T17:59:29.209Z,8.70
2023-03-25T18:04:43.292Z,8.70
2023-03-25T18:09:54.290Z,8.80
2023-03-25T18:14:58.474Z,8.70
2023-03-25T18:20:03.117Z,8.70
2023-03-25T18:25:16.348Z,8.30
2023-03-25T18:30:23.827Z,7.90
2023-03-25T18:35:30.119Z,7.70
2023-03-25T18:40:38.945Z,7.70
2023-03-25T18:45:44.639Z,7.80
2023-03-25T18:50:56.040Z,7.90
2023-03-25T18:56:02.865Z,7.90
2023-03-25T19:01:21.820Z,7.50
2023-03-25T19:06:25.683Z,7.20
2023-03-25T19:11:33.889Z,7.20
2023-03-25T19:16:38.454Z,7.10
2023-03-25T19:21:42.305Z,7.10
2023-03-25T19:26:47.036Z,6.80
2023-03-25T19:31:50.699Z,6.70
2023-03-25T19:37:06.538Z,6.60
2023-03-25T19:42:13.394Z,6.50
2023-03-25T19:47:18.755Z,6.60
2023-03-25T19:52:24.648Z,6.60
2023-03-25T19:57:29.315Z,6.60
2023-03-25T20:02:33.637Z,6.60
2023-03-25T20:07:37.619Z,6.50
2023-03-25T20:12:42.427Z,6.50
2023-03-25T20:17:46.481Z,6.60
2023-03-25T20:22:50.152Z,6.70
2023-03-25T20:27:55.970Z,6.90
2023-03-25T20:32:59.397Z,7.10
2023-03-25T20:38:10.077Z,7.00
2023-03-25T20:43:15.178Z,6.70
2023-03-25T20:48:18.504Z,6.40
2023-03-25T20:53:22.934Z,6.10
2023-03-25T20:58:31.280Z,5.90
2023-03-25T21:03:35.031Z,6.00
2023-03-25T21:08:40.455Z,6.10
2023-03-25T21:13:46.587Z,6.30
2023-03-25T21:18:50.592Z,6.60
2023-03-25T21:23:54.016Z,6.60
2023-03-25T21:29:02.020Z,6.60
2023-03-25T21:34:05.221Z,6.50
2023-03-25T21:39:08.753Z,6.50
2023-03-25T21:44:15.982Z,6.40
2023-03-25T21:49:22.428Z,6.30
2023-03-25T21:54:26.669Z,6.20
2023-03-25T21:59:31.513Z,6.10
2023-03-25T22:04:34.967Z,6.10
2023-03-25T22:09:38.390Z,6.00
2023-03-25T22:14:45.570Z,6.00
2023-03-25T22:19:49.083Z,5.90
2023-03-25T22:24:52.500Z,6.00
2023-03-25T22:29:59.141Z,6.00
2023-03-25T22:35:07.071Z,6.00
2023-03-25T22:40:11.888Z,6.00
2023-03-25T22:45:16.667Z,6.00
2023-03-25T22:50:24.269Z,6.00
2023-03-25T22:55:27.583Z,5.90
2023-03-25T23:00:32.178Z,5.80
2023-03-25T23:05:36.368Z,5.70
2023-03-25T23:10:45.034Z,5.70
2023-03-25T23:15:49.709Z,5.60
2023-03-25T23:20:53.157Z,5.50
2023-03-25T23:26:04.425Z,5.40
2023-03-25T23:31:13.221Z,5.30
2023-03-25T23:36:19.117Z,5.30
2023-03-25T23:41:24.209Z,5.30
2023-03-25T23:46:29.305Z,5.40
2023-03-25T23:51:35.205Z,5.60
2023-03-25T23:56:39.585Z,5.50
